createdAt,value
2018-12-10T00:02:34.465Z,3.90
2018-12-10T00:05:18.573Z,4.27
2018-12-10T00:08:01.495Z,4.50
2018-12-10T00:10:43.551Z,4.90
2018-12-10T00:13:25.709Z,4.73
2018-12-10T00:16:07.771Z,3.17
2018-12-10T00:18:49.459Z,3.17
2018-12-10T00:21:31.556Z,2.77
2018-12-10T00:24:13.599Z,2.50
2018-12-10T00:26:55.373Z,2.50
2018-12-10T00:29:37.525Z,2.97
2018-12-10T00:32:19.571Z,2.83
2018-12-10T00:35:01.720Z,2.60
2018-12-10T00:37:43.894Z,2.80
2018-12-10T00:40:26.140Z,3.00
2018-12-10T00:43:07.897Z,2.57
2018-12-10T00:45:49.846Z,2.50
2018-12-10T00:48:31.882Z,2.80
2018-12-10T00:51:14.060Z,2.40
2018-12-10T00:53:56.154Z,2.73
2018-12-10T00:56:38.246Z,2.70
2018-12-10T00:59:19.982Z,2.20
2018-12-10T01:02:02.234Z,2.33
2018-12-10T01:04:44.435Z,2.43
2018-12-10T01:07:26.470Z,1.97
2018-12-10T01:10:08.553Z,2.90
2018-12-10T01:12:50.406Z,2.13
2018-12-10T01:15:32.671Z,1.97
2018-12-10T01:21:28.110Z,2.60
2018-12-10T01:24:09.683Z,1.70
2018-12-10T01:26:52.583Z,1.80
2018-12-10T01:29:35.362Z,2.10
2018-12-10T01:32:17.791Z,2.37
2018-12-10T01:34:59.756Z,2.07
2018-12-10T01:37:41.952Z,1.73
2018-12-10T01:40:23.773Z,2.07
2018-12-10T01:43:05.877Z,2.30
2018-12-10T01:45:47.710Z,2.13
2018-12-10T01:48:29.907Z,1.97
2018-12-10T01:51:12.031Z,2.00
2018-12-10T01:53:55.565Z,2.60
2018-12-10T01:56:37.507Z,2.50
2018-12-10T01:59:19.389Z,1.80
2018-12-10T02:02:01.326Z,1.80
2018-12-10T02:04:43.037Z,1.83
2018-12-10T02:07:25.129Z,2.10
2018-12-10T02:10:08.505Z,2.63
2018-12-10T02:12:50.437Z,2.17
2018-12-10T02:15:32.511Z,2.30
2018-12-10T02:18:14.520Z,2.60
2018-12-10T02:20:57.576Z,2.07
2018-12-10T02:23:39.850Z,1.90
2018-12-10T02:26:21.901Z,2.47
2018-12-10T02:29:09.322Z,2.40
2018-12-10T02:31:50.879Z,2.67
2018-12-10T02:34:32.985Z,2.83
2018-12-10T02:40:11.420Z,2.40
2018-12-10T02:42:53.370Z,2.27
2018-12-10T02:45:36.532Z,2.23
2018-12-10T02:48:18.512Z,2.23
2018-12-10T02:51:00.419Z,2.40
2018-12-10T02:53:42.730Z,2.20
2018-12-10T02:56:25.869Z,2.40
2018-12-10T02:59:07.745Z,2.27
2018-12-10T03:01:49.992Z,2.43
2018-12-10T03:04:31.875Z,3.13
2018-12-10T03:07:14.064Z,2.30
2018-12-10T03:09:55.739Z,3.07
2018-12-10T03:12:37.691Z,2.87
2018-12-10T03:15:20.023Z,2.97
2018-12-10T03:18:01.898Z,3.47
2018-12-10T03:20:43.874Z,2.77
2018-12-10T03:23:25.793Z,3.17
2018-12-10T03:26:07.507Z,2.40
2018-12-10T03:28:49.641Z,2.83
2018-12-10T03:31:31.459Z,2.70
2018-12-10T03:34:13.578Z,2.83
2018-12-10T03:36:55.695Z,3.03
2018-12-10T03:39:37.878Z,2.40
2018-12-10T03:42:19.681Z,2.50
2018-12-10T03:45:01.799Z,2.73
2018-12-10T03:47:43.533Z,2.60
2018-12-10T03:50:25.642Z,2.60
2018-12-10T03:53:07.854Z,2.43
2018-12-10T03:55:49.830Z,2.37
2018-12-10T03:58:31.798Z,2.90
2018-12-10T04:01:13.971Z,2.27
2018-12-10T04:03:56.122Z,3.00
2018-12-10T04:06:38.107Z,2.60
2018-12-10T04:09:19.895Z,2.60
2018-12-10T04:12:01.765Z,2.77
2018-12-10T04:14:43.821Z,3.40
2018-12-10T04:17:25.553Z,2.70
2018-12-10T04:20:07.958Z,3.10
2018-12-10T04:22:56.503Z,2.97
2018-12-10T04:25:40.785Z,2.60
2018-12-10T04:28:23.329Z,2.77
2018-12-10T04:31:05.173Z,3.30
2018-12-10T04:33:46.874Z,2.90
2018-12-10T04:36:29.015Z,3.27
2018-12-10T04:39:10.735Z,3.17
2018-12-10T04:41:52.950Z,3.47
2018-12-10T04:44:34.995Z,3.67
2018-12-10T04:47:17.009Z,4.13
2018-12-10T04:49:59.097Z,4.30
2018-12-10T04:52:41.292Z,4.77
2018-12-10T04:55:23.029Z,4.87
2018-12-10T04:58:05.190Z,4.27
2018-12-10T05:00:47.289Z,4.50
2018-12-10T05:03:29.497Z,5.37
2018-12-10T05:06:11.532Z,4.80
2018-12-10T05:08:53.441Z,4.83
2018-12-10T05:11:35.476Z,4.63
2018-12-10T05:14:17.465Z,4.50
2018-12-10T05:16:59.423Z,5.07
2018-12-10T05:19:41.526Z,3.67
2018-12-10T05:22:23.453Z,4.00
2018-12-10T05:25:05.606Z,3.90
2018-12-10T05:27:47.282Z,5.30
2018-12-10T05:30:29.434Z,4.73
2018-12-10T05:33:11.302Z,4.10
2018-12-10T05:35:53.414Z,5.60
2018-12-10T05:38:35.574Z,4.60
2018-12-10T05:41:17.558Z,4.53
2018-12-10T05:43:59.561Z,4.23
2018-12-10T05:46:41.553Z,4.10
2018-12-10T05:49:23.774Z,5.07
2018-12-10T05:52:05.692Z,6.43
2018-12-10T05:54:47.877Z,6.63
2018-12-10T05:57:29.725Z,5.73
2018-12-10T06:00:11.797Z,5.90
2018-12-10T06:02:53.812Z,6.47
2018-12-10T06:05:35.954Z,5.27
2018-12-10T06:08:17.891Z,5.90
2018-12-10T06:10:59.824Z,5.20
2018-12-10T06:13:41.907Z,5.30
2018-12-10T06:16:24.184Z,5.77
2018-12-10T06:19:06.286Z,5.10
2018-12-10T06:21:48.292Z,5.17
2018-12-10T06:24:30.067Z,5.13
2018-12-10T06:27:12.332Z,4.73
2018-12-10T06:29:54.299Z,5.57
2018-12-10T06:32:36.459Z,6.47
2018-12-10T06:35:18.349Z,5.10
2018-12-10T06:38:00.474Z,5.47
2018-12-10T06:40:42.655Z,5.80
2018-12-10T06:43:24.394Z,6.00
2018-12-10T06:46:06.406Z,8.60
2018-12-10T06:48:48.527Z,11.43
2018-12-10T06:51:30.654Z,10.40
2018-12-10T06:54:12.691Z,6.87
2018-12-10T06:56:54.659Z,5.50
2018-12-10T06:59:36.479Z,5.63
2018-12-10T07:02:18.709Z,6.20
2018-12-10T07:05:00.619Z,6.20
2018-12-10T07:07:42.413Z,6.93
2018-12-10T07:10:24.382Z,6.57
2018-12-10T07:13:06.635Z,6.80
2018-12-10T07:15:48.539Z,6.57
2018-12-10T07:18:30.626Z,6.07
2018-12-10T07:21:12.613Z,5.43
2018-12-10T07:23:54.786Z,6.77
2018-12-10T07:26:36.793Z,6.10
2018-12-10T07:29:18.711Z,5.90
2018-12-10T07:32:00.566Z,5.80
2018-12-10T07:34:42.879Z,5.77
2018-12-10T07:37:24.790Z,5.17
2018-12-10T07:40:06.833Z,4.87
2018-12-10T07:42:48.732Z,5.20
2018-12-10T07:45:30.690Z,4.67
2018-12-10T07:48:12.696Z,5.43
2018-12-10T07:50:54.841Z,4.87
2018-12-10T07:53:36.870Z,5.00
2018-12-10T07:56:18.926Z,5.97
2018-12-10T07:59:00.913Z,5.53
2018-12-10T08:01:42.994Z,4.27
2018-12-10T08:04:25.134Z,4.50
2018-12-10T08:07:07.409Z,4.73
2018-12-10T08:09:49.366Z,4.27
2018-12-10T08:12:31.413Z,4.90
2018-12-10T08:15:13.635Z,4.83
2018-12-10T08:17:55.300Z,4.43
2018-12-10T08:20:37.502Z,5.37
2018-12-10T08:23:19.379Z,5.40
2018-12-10T08:26:01.304Z,6.63
2018-12-10T08:28:43.683Z,8.50
2018-12-10T08:31:25.790Z,9.60
2018-12-10T08:34:07.633Z,12.17
2018-12-10T08:36:49.506Z,8.50
2018-12-10T08:39:31.579Z,8.40
2018-12-10T08:42:13.652Z,7.20
2018-12-10T08:44:55.677Z,6.57
2018-12-10T08:47:37.910Z,6.27
2018-12-10T08:50:20.041Z,6.70
2018-12-10T08:53:01.838Z,5.43
2018-12-10T08:55:43.841Z,11.47
2018-12-10T08:58:25.991Z,7.80
2018-12-10T09:01:08.062Z,5.73
2018-12-10T09:03:50.004Z,5.87
2018-12-10T09:06:32.352Z,4.47
2018-12-10T09:09:14.510Z,4.70
2018-12-10T09:12:27.475Z,4.33
2018-12-10T09:15:09.355Z,3.83
2018-12-10T09:17:51.154Z,3.97
2018-12-10T09:20:33.226Z,4.70
2018-12-10T09:23:15.011Z,4.07
2018-12-10T09:25:57.276Z,4.10
2018-12-10T09:28:39.233Z,5.13
2018-12-10T09:31:21.177Z,4.30
2018-12-10T09:34:03.493Z,4.40
2018-12-10T09:36:45.407Z,5.53
2018-12-10T09:39:27.239Z,4.20
2018-12-10T09:42:09.444Z,3.73
2018-12-10T09:44:51.357Z,3.60
2018-12-10T09:47:33.316Z,3.03
2018-12-10T09:50:15.564Z,3.13
2018-12-10T09:52:57.718Z,4.17
2018-12-10T09:55:39.753Z,3.80
2018-12-10T09:58:22.122Z,2.47
2018-12-10T10:01:04.051Z,3.10
2018-12-10T10:03:46.263Z,3.20
2018-12-10T10:06:28.466Z,3.40
2018-12-10T10:09:10.083Z,4.70
2018-12-10T10:11:52.155Z,3.77
2018-12-10T10:14:34.333Z,4.67
2018-12-10T10:17:16.364Z,4.33
2018-12-10T10:19:58.358Z,3.90
2018-12-10T10:22:40.389Z,3.70
2018-12-10T10:25:22.675Z,2.40
2018-12-10T10:28:04.726Z,2.30
2018-12-10T10:30:46.462Z,2.80
2018-12-10T10:33:32.366Z,2.53
2018-12-10T10:36:12.509Z,3.30
2018-12-10T10:38:54.542Z,3.40
2018-12-10T10:41:36.434Z,2.80
2018-12-10T10:44:18.531Z,3.20
2018-12-10T10:47:00.736Z,3.03
2018-12-10T10:49:42.457Z,2.80
2018-12-10T10:52:24.601Z,3.10
2018-12-10T10:55:06.521Z,2.80
2018-12-10T10:57:48.410Z,3.13
2018-12-10T11:00:35.817Z,3.93
2018-12-10T11:03:38.465Z,2.60
2018-12-10T11:06:20.746Z,2.77
2018-12-10T11:09:05.510Z,2.43
2018-12-10T11:11:48.918Z,2.80
2018-12-10T11:14:30.999Z,2.43
2018-12-10T11:17:12.857Z,2.57
2018-12-10T11:19:54.671Z,2.30
2018-12-10T11:22:36.540Z,2.43
2018-12-10T11:25:18.491Z,2.50
2018-12-10T11:28:00.583Z,2.23
2018-12-10T11:30:42.742Z,2.03
2018-12-10T11:33:24.743Z,2.27
2018-12-10T11:36:06.589Z,1.80
2018-12-10T11:38:48.562Z,1.67
2018-12-10T11:41:30.569Z,1.80
2018-12-10T11:44:12.385Z,2.90
2018-12-10T11:46:54.474Z,1.90
2018-12-10T11:49:36.362Z,2.00
2018-12-10T11:52:18.543Z,1.63
2018-12-10T11:55:00.658Z,1.57
2018-12-10T11:57:42.851Z,1.80
2018-12-10T12:00:25.065Z,1.73
2018-12-10T12:03:07.162Z,1.67
2018-12-10T12:05:49.433Z,1.47
2018-12-10T12:08:31.562Z,2.17
2018-12-10T12:11:13.473Z,1.90
2018-12-10T12:13:55.806Z,2.50
2018-12-10T12:16:37.666Z,1.83
2018-12-10T12:19:19.770Z,1.70
2018-12-10T12:22:05.107Z,1.97
2018-12-10T12:24:45.707Z,1.90
2018-12-10T12:27:27.678Z,2.17
2018-12-10T12:30:09.879Z,1.53
2018-12-10T12:32:51.767Z,1.80
2018-12-10T12:35:34.034Z,1.70
2018-12-10T12:38:15.702Z,2.23
2018-12-10T12:40:57.825Z,1.67
2018-12-10T12:43:39.930Z,2.27
2018-12-10T12:46:21.878Z,1.87
2018-12-10T12:49:03.687Z,1.50
2018-12-10T12:51:45.510Z,1.60
2018-12-10T12:54:27.809Z,1.47
2018-12-10T12:57:09.905Z,2.50
2018-12-10T12:59:51.696Z,1.47
2018-12-10T13:02:33.806Z,1.50
2018-12-10T13:05:15.992Z,1.53
2018-12-10T13:07:58.150Z,2.10
2018-12-10T13:10:40.239Z,1.77
2018-12-10T13:13:22.186Z,1.43
2018-12-10T13:16:04.159Z,1.90
2018-12-10T13:18:46.090Z,2.13
2018-12-10T13:21:28.234Z,1.80
2018-12-10T13:24:10.065Z,1.47
2018-12-10T13:26:52.215Z,1.70
2018-12-10T13:29:34.013Z,1.70
2018-12-10T13:32:16.070Z,1.50
2018-12-10T13:34:57.979Z,3.30
2018-12-10T13:37:40.341Z,2.20
2018-12-10T13:40:22.103Z,2.10
2018-12-10T13:43:04.636Z,2.07
2018-12-10T13:45:46.394Z,2.40
2018-12-10T13:48:28.420Z,2.13
2018-12-10T13:51:10.263Z,1.73
2018-12-10T13:53:52.439Z,1.77
2018-12-10T13:56:34.695Z,1.83
2018-12-10T13:59:16.471Z,2.10
2018-12-10T14:01:58.408Z,2.00
2018-12-10T14:04:46.592Z,1.87
2018-12-10T14:07:28.204Z,2.23
2018-12-10T14:10:10.367Z,1.93
2018-12-10T14:12:52.565Z,1.90
2018-12-10T14:15:34.297Z,2.03
2018-12-10T14:18:16.602Z,2.30
2018-12-10T14:20:58.633Z,2.20
2018-12-10T14:23:40.559Z,2.43
2018-12-10T14:26:22.581Z,2.63
2018-12-10T14:29:04.518Z,2.00
2018-12-10T14:31:46.467Z,2.33
2018-12-10T14:34:28.617Z,2.27
2018-12-10T14:37:10.825Z,2.20
2018-12-10T14:39:52.814Z,2.30
2018-12-10T14:42:44.986Z,3.53
2018-12-10T14:45:26.759Z,4.73
2018-12-10T14:48:08.813Z,5.33
2018-12-10T14:50:50.734Z,3.57
2018-12-10T14:53:32.812Z,3.10
2018-12-10T14:56:14.763Z,2.80
2018-12-10T14:58:56.732Z,3.23
2018-12-10T15:01:38.625Z,2.27
2018-12-10T15:04:20.766Z,2.23
2018-12-10T15:07:02.967Z,2.83
2018-12-10T15:09:44.778Z,2.20
2018-12-10T15:12:26.685Z,2.27
2018-12-10T15:15:10.374Z,2.60
2018-12-10T15:17:52.849Z,2.63
2018-12-10T15:20:34.895Z,4.43
2018-12-10T15:23:16.502Z,2.50
2018-12-10T15:25:58.607Z,3.00
2018-12-10T15:28:40.722Z,3.13
2018-12-10T15:31:22.793Z,2.60
2018-12-10T15:34:04.797Z,2.30
2018-12-10T15:36:46.802Z,2.40
2018-12-10T15:39:28.822Z,2.17
2018-12-10T15:42:10.897Z,2.93
2018-12-10T15:44:52.584Z,2.83
2018-12-10T15:47:34.530Z,2.70
2018-12-10T15:50:16.681Z,2.53
2018-12-10T15:52:58.936Z,2.90
2018-12-10T15:55:40.775Z,3.47
2018-12-10T15:58:24.077Z,2.60
2018-12-10T16:01:06.034Z,2.83
2018-12-10T16:03:48.470Z,2.73
2018-12-10T16:06:30.547Z,3.30
2018-12-10T16:09:12.366Z,2.90
2018-12-10T16:11:54.471Z,2.80
2018-12-10T16:14:36.442Z,2.83
2018-12-10T16:17:18.566Z,3.00
2018-12-10T16:20:00.620Z,4.10
2018-12-10T16:22:42.543Z,5.93
2018-12-10T16:25:24.546Z,9.70
2018-12-10T16:28:06.701Z,6.10
2018-12-10T16:30:48.777Z,6.70
2018-12-10T16:33:30.867Z,4.10
2018-12-10T16:36:13.417Z,3.20
2018-12-10T16:38:55.992Z,3.43
2018-12-10T16:41:37.730Z,3.50
2018-12-10T16:44:19.853Z,3.63
2018-12-10T16:47:01.600Z,3.40
2018-12-10T16:49:43.542Z,4.07
2018-12-10T16:52:25.732Z,2.83
2018-12-10T16:55:08.380Z,2.40
2018-12-10T16:57:50.406Z,2.80
2018-12-10T17:00:32.580Z,2.57
2018-12-10T17:03:14.435Z,3.30
2018-12-10T17:05:56.514Z,3.67
2018-12-10T17:08:38.614Z,4.10
2018-12-10T17:11:20.901Z,4.50
2018-12-10T17:14:03.087Z,3.27
2018-12-10T17:16:45.246Z,3.50
2018-12-10T17:19:27.073Z,2.90
2018-12-10T17:22:09.233Z,3.00
2018-12-10T17:24:51.199Z,2.93
2018-12-10T17:27:33.112Z,3.30
2018-12-10T17:30:15.044Z,4.70
2018-12-10T17:32:56.931Z,4.23
2018-12-10T17:35:39.045Z,4.20
2018-12-10T17:38:21.116Z,4.33
2018-12-10T17:41:06.590Z,4.60
2018-12-10T17:43:47.185Z,4.73
2018-12-10T17:46:29.355Z,4.83
2018-12-10T17:49:11.338Z,5.77
2018-12-10T17:51:53.404Z,5.40
2018-12-10T17:54:35.210Z,5.40
2018-12-10T17:57:17.174Z,5.30
2018-12-10T18:00:00.146Z,5.73
2018-12-10T18:02:42.299Z,5.70
2018-12-10T18:05:24.133Z,5.80
2018-12-10T18:08:06.206Z,5.80
2018-12-10T18:10:48.085Z,5.13
2018-12-10T18:13:30.224Z,4.90
2018-12-10T18:16:12.127Z,5.40
2018-12-10T18:18:54.160Z,5.40
2018-12-10T18:21:36.094Z,5.47
2018-12-10T18:24:18.002Z,5.70
2018-12-10T18:27:00.184Z,5.40
2018-12-10T18:29:42.918Z,5.23
2018-12-10T18:32:25.058Z,5.80
2018-12-10T18:35:08.338Z,6.27
2018-12-10T18:37:50.270Z,5.67
2018-12-10T18:40:32.265Z,6.13
2018-12-10T18:43:14.037Z,6.00
2018-12-10T18:45:56.018Z,6.13
2018-12-10T18:48:38.141Z,6.50
2018-12-10T18:51:20.180Z,7.30
2018-12-10T18:54:01.907Z,9.03
2018-12-10T18:56:44.098Z,12.23
2018-12-10T18:59:26.287Z,15.53
2018-12-10T19:02:08.362Z,15.90
2018-12-10T19:04:50.505Z,13.97
2018-12-10T19:07:32.802Z,11.20
2018-12-10T19:10:14.588Z,10.17
2018-12-10T19:12:56.839Z,9.90
2018-12-10T19:15:38.539Z,10.57
2018-12-10T19:18:20.947Z,12.03
2018-12-10T19:21:03.151Z,11.53
2018-12-10T19:23:46.362Z,12.37
2018-12-10T19:26:28.403Z,14.13
2018-12-10T19:29:10.366Z,15.50
2018-12-10T19:31:52.120Z,14.53
2018-12-10T19:34:34.362Z,16.17
2018-12-10T19:37:16.455Z,13.43
2018-12-10T19:39:58.300Z,10.30
2018-12-10T19:42:40.461Z,11.80
2018-12-10T19:45:22.483Z,12.80
2018-12-10T19:48:04.310Z,14.30
2018-12-10T19:50:46.203Z,15.57
2018-12-10T19:53:28.406Z,20.13
2018-12-10T19:56:10.409Z,18.97
2018-12-10T19:58:52.427Z,18.07
2018-12-10T20:01:34.455Z,12.13
2018-12-10T20:04:16.643Z,33.37
2018-12-10T20:07:04.038Z,35.03
2018-12-10T20:09:47.447Z,34.40
2018-12-10T20:12:30.001Z,39.87
2018-12-10T20:15:11.652Z,30.57
2018-12-10T20:17:53.806Z,22.63
2018-12-10T20:20:35.827Z,23.47
2018-12-10T20:23:17.639Z,20.13
2018-12-10T20:25:59.398Z,16.77
2018-12-10T20:28:41.375Z,15.23
2018-12-10T20:31:23.251Z,12.27
2018-12-10T20:34:05.623Z,12.63
2018-12-10T20:36:47.491Z,12.00
2018-12-10T20:39:29.362Z,9.73
2018-12-10T20:42:11.572Z,18.20
2018-12-10T20:44:53.833Z,15.57
2018-12-10T20:47:35.735Z,13.20
2018-12-10T20:50:18.824Z,10.67
2018-12-10T20:53:00.918Z,10.30
2018-12-10T20:55:43.059Z,10.60
2018-12-10T20:58:25.166Z,10.17
2018-12-10T21:01:07.230Z,11.13
2018-12-10T21:03:49.201Z,12.00
2018-12-10T21:06:36.924Z,11.70
2018-12-10T21:09:19.269Z,13.10
2018-12-10T21:12:01.526Z,13.70
2018-12-10T21:14:43.613Z,15.23
2018-12-10T21:17:25.466Z,14.73
2018-12-10T21:20:07.531Z,10.67
2018-12-10T21:22:49.745Z,10.23
2018-12-10T21:25:31.704Z,9.63
2018-12-10T21:28:13.643Z,8.87
2018-12-10T21:30:55.789Z,8.90
2018-12-10T21:33:37.838Z,9.07
2018-12-10T21:36:19.783Z,8.57
2018-12-10T21:39:01.954Z,8.40
2018-12-10T21:41:44.974Z,7.67
2018-12-10T21:44:26.692Z,8.13
2018-12-10T21:47:08.912Z,7.70
2018-12-10T21:49:50.843Z,7.70
2018-12-10T21:52:32.809Z,8.30
2018-12-10T21:55:16.981Z,7.63
2018-12-10T21:57:59.115Z,6.73
2018-12-10T22:00:41.342Z,7.00
2018-12-10T22:03:23.378Z,7.10
2018-12-10T22:06:05.533Z,7.47
2018-12-10T22:08:47.261Z,8.87
2018-12-10T22:11:29.332Z,9.33
2018-12-10T22:14:11.678Z,7.33
2018-12-10T22:16:53.865Z,7.83
2018-12-10T22:19:36.022Z,12.13
2018-12-10T22:22:18.329Z,11.67
2018-12-10T22:25:00.026Z,10.87
2018-12-10T22:27:42.345Z,9.60
2018-12-10T22:30:24.210Z,8.37
2018-12-10T22:33:06.108Z,7.17
2018-12-10T22:35:48.354Z,5.63
2018-12-10T22:38:30.413Z,5.57
2018-12-10T22:41:12.566Z,5.40
2018-12-10T22:43:54.765Z,5.83
2018-12-10T22:46:36.513Z,5.50
2018-12-10T22:49:18.741Z,5.13
2018-12-10T22:52:00.725Z,5.00
2018-12-10T22:54:42.943Z,5.10
2018-12-10T22:57:24.837Z,5.33
2018-12-10T23:00:08.270Z,4.87
2018-12-10T23:02:52.422Z,5.70
2018-12-10T23:05:33.917Z,6.07
2018-12-10T23:08:17.778Z,5.20
2018-12-10T23:10:59.946Z,5.30
2018-12-10T23:13:42.230Z,5.30
2018-12-10T23:16:24.230Z,5.10
2018-12-10T23:19:06.250Z,5.40
2018-12-10T23:21:48.347Z,5.23
2018-12-10T23:24:30.346Z,5.97
2018-12-10T23:27:12.287Z,6.00
2018-12-10T23:29:54.366Z,5.80
2018-12-10T23:32:36.497Z,6.50
2018-12-10T23:35:18.541Z,5.33
2018-12-10T23:38:00.746Z,6.17
2018-12-10T23:40:42.745Z,5.40
2018-12-10T23:43:24.560Z,5.77
2018-12-10T23:46:06.951Z,5.47
2018-12-10T23:48:49.074Z,5.17
2018-12-10T23:51:31.137Z,5.40
2018-12-10T23:54:13.250Z,4.87
2018-12-10T23:56:55.435Z,4.97
2018-12-10T23:59:37.584Z,5.53
